Hafnia Nordica — 9HA4256 — position and weather

sailwx.info

Track history (hours):
 
Tides and Currents Weather Stations Pressure Air Temp Water Temp Dewpoint Dewpoint Depression Visibility Wind Speed Wind Dir Waves Ship Positions

Hafnia Nordica

Last reported at 2018-Jul-19 04:35 UTC. Time now 2018-Jul-19 23:15 UTC.
Position N 49°44' W 004°49'.

Length 186 m; draft 11 m.

Type: Ship. MMSI: 249460000.

Date/timePositionNaut miles runAvg speedWind from/ knotsBaromVisibWave heightAir tempDewpointWater temp
2018-Jul-19 04:35N 49°44' W 004°49'1513.0
2018-Jul-19 03:27N 49°46' W 004°27'1112.8
2018-Jul-19 02:38N 49°49' W 004°11'212.8
2018-Jul-19 02:29N 49°49' W 004°08'812.8
2018-Jul-19 01:49N 49°51' W 003°55'412.6
2018-Jul-19 01:30N 49°52' W 003°49'713.0
2018-Jul-19 01:00N 49°53' W 003°39'612.8
2018-Jul-19 00:30N 49°55' W 003°29'612.6
2018-Jul-19 00:00N 49°56' W 003°20'612.3
2018-Jul-18 23:30N 49°58' W 003°11'612.2
2018-Jul-18 23:00N 49°59' W 003°01'612.1
2018-Jul-18 22:30N 50°01' W 002°52'612.3
2018-Jul-18 22:00N 50°02' W 002°43'612.2
2018-Jul-18 21:30N 50°04' W 002°34'612.4
2018-Jul-18 21:00N 50°06' W 002°25'612.3
2018-Jul-18 20:30N 50°07' W 002°15'712.9
2018-Jul-18 19:57N 50°09' W 002°05'1113.9
2018-Jul-18 19:08N 50°13' W 001°48'414.4
2018-Jul-18 18:51N 50°14' W 001°42'514.5
2018-Jul-18 18:30N 50°16' W 001°35'714.4
2018-Jul-18 18:00N 50°20' W 001°25'714.6
2018-Jul-18 17:30N 50°23' W 001°15'612.5
2018-Jul-18 17:00N 50°26' W 001°06'2 3.1
2018-Jul-18 16:30N 50°26' W 001°04'1 1.9
2018-Jul-18 16:00N 50°26' W 001°02'1 1.2
2018-Jul-18 15:30N 50°26' W 001°01'0 0.3
2018-Jul-18 15:00N 50°26' W 001°01'0 0.5
2018-Jul-18 14:30N 50°26' W 001°02'2 1.6
2018-Jul-18 13:30N 50°26' W 001°04'1 2.3
2018-Jul-18 13:00N 50°26' W 001°02'2 3.5
2018-Jul-18 12:30N 50°27' W 000°60'2 4.9
2018-Jul-18 12:00N 50°29' W 000°58'1 2.8
2018-Jul-18 11:30N 50°29' W 000°60'3 3.3
2018-Jul-18 10:30N 50°28' W 001°05'1 2.9
2018-Jul-18 10:00N 50°28' W 001°07'1 2.0
2018-Jul-18 09:29N 50°28' W 001°09'1 1.1
2018-Jul-18 09:00N 50°28' W 001°10'0 0.3
2018-Jul-18 08:30N 50°28' W 001°10'1 0.9
2018-Jul-18 07:48N 50°28' W 001°09'1 1.6
2018-Jul-18 07:28N 50°28' W 001°08'1 2.1
2018-Jul-18 07:00N 50°28' W 001°06'1 2.3
2018-Jul-18 06:29N 50°28' W 001°04'1 2.5
2018-Jul-18 06:00N 50°28' W 001°02'1 2.8
2018-Jul-18 05:30N 50°28' W 001°00'1 2.9
2018-Jul-18 05:00N 50°28' W 000°58'1 2.8
2018-Jul-18 04:30N 50°28' W 000°56'1 2.4
2018-Jul-18 04:00N 50°28' W 000°54'1 1.8
2018-Jul-18 03:30N 50°28' W 000°53'1 1.0
2018-Jul-18 03:00N 50°28' W 000°52'0 0.2
2018-Jul-18 02:30N 50°28' W 000°52'0 0.6
2018-Jul-18 02:00N 50°28' W 000°52'1 1.4
2018-Jul-18 01:30N 50°28' W 000°53'1 2.2
2018-Jul-18 01:00N 50°28' W 000°55'2 2.9
2018-Jul-18 00:27N 50°28' W 000°57'2 3.4
2018-Jul-17 23:58N 50°27' W 000°60'2 3.8
2018-Jul-17 23:29N 50°27' W 001°03'2 3.8
2018-Jul-17 23:00N 50°27' W 001°06'2 4.0
2018-Jul-17 22:30N 50°27' W 001°09'2 3.8
2018-Jul-17 22:00N 50°26' W 001°12'2 3.2
2018-Jul-17 21:30N 50°26' W 001°14'1 2.3
2018-Jul-17 20:58N 50°26' W 001°16'1 1.4
2018-Jul-17 20:30N 50°26' W 001°17'0 0.6
2018-Jul-17 20:00N 50°26' W 001°17'0 0.6
2018-Jul-17 19:30N 50°26' W 001°17'1 1.4
2018-Jul-17 18:59N 50°25' W 001°16'1 2.0
2018-Jul-17 18:30N 50°25' W 001°14'1 2.5
2018-Jul-17 18:00N 50°25' W 001°13'2 2.8
2018-Jul-17 17:19N 50°25' W 001°09'2 3.0
2018-Jul-17 16:46N 50°25' W 001°07'1 3.0
2018-Jul-17 16:30N 50°25' W 001°06'1 2.5
2018-Jul-17 15:58N 50°25' W 001°03'1 1.9
2018-Jul-17 15:30N 50°25' W 001°02'1 1.5
2018-Jul-17 14:59N 50°25' W 001°01'1 1.9
2018-Jul-17 14:29N 50°25' W 000°59'3 5.0
2018-Jul-17 13:51N 50°25' W 000°54'2 4.9
2018-Jul-17 13:30N 50°26' W 000°52'2 3.9
2018-Jul-17 12:59N 50°26' W 000°49'1 1.8
2018-Jul-17 12:29N 50°25' W 000°48'2 3.7
2018-Jul-17 12:00N 50°25' W 000°50'2 3.8
2018-Jul-17 11:30N 50°24' W 000°53'2 4.0
2018-Jul-17 10:57N 50°24' W 000°57'2 4.4
2018-Jul-17 10:29N 50°24' W 000°60'2 4.1
2018-Jul-17 09:59N 50°24' W 001°03'2 3.6
2018-Jul-17 09:30N 50°24' W 001°06'1 2.8
2018-Jul-17 09:00N 50°23' W 001°08'1 1.6
2018-Jul-17 08:20N 50°23' W 001°10'0 0.5
2018-Jul-17 07:52N 50°23' W 001°10'0 0.4
2018-Jul-17 07:30N 50°23' W 001°10'3 1.7
2018-Jul-17 05:54N 50°24' W 001°05'1 2.6
2018-Jul-17 05:30N 50°24' W 001°04'1 2.4
2018-Jul-17 05:00N 50°24' W 001°02'1 3.0
2018-Jul-17 04:30N 50°25' W 000°60'2 3.0
2018-Jul-17 03:56N 50°25' W 000°57'1 2.9
2018-Jul-17 03:30N 50°25' W 000°55'2 1.5
2018-Jul-17 02:20N 50°26' W 000°53'0 0.5
2018-Jul-17 02:00N 50°26' W 000°53'1 1.8
2018-Jul-17 01:30N 50°26' W 000°51'3 6.1
2018-Jul-17 01:00N 50°26' W 000°46'1 2.0
2018-Jul-17 00:28N 50°25' W 000°47'3 3.6
2018-Jul-16 23:30N 50°25' W 000°52'2 4.0
2018-Jul-16 23:00N 50°24' W 000°55'3 4.6
2018-Jul-16 22:24N 50°24' W 000°60'2 4.5
2018-Jul-16 22:00N 50°24' W 001°02'2 3.7
2018-Jul-16 21:27N 50°24' W 001°05'1 2.7
2018-Jul-16 20:55N 50°23' W 001°03'4 8.8
2018-Jul-16 20:27N 50°24' W 000°57'511.0
2018-Jul-16 20:00N 50°24' W 000°49'612.0
2018-Jul-16 19:31N 50°25' W 000°40'712.7
2018-Jul-16 18:56N 50°26' W 000°28'511.9
2018-Jul-16 18:30N 50°27' W 000°21'4 7.7
2018-Jul-16 18:00N 50°29' W 000°15'612.3
2018-Jul-16 17:30N 50°30' W 000°05'713.5
2018-Jul-16 17:00N 50°32' E 000°05'714.1
2018-Jul-16 16:30N 50°34' E 000°15'713.8
2018-Jul-16 16:00N 50°36' E 000°26'713.4
2018-Jul-16 15:30N 50°38' E 000°36'612.9
2018-Jul-16 15:00N 50°42' E 000°44'612.3
2018-Jul-16 14:30N 50°45' E 000°52'611.8
2018-Jul-16 14:00N 50°48' E 001°00'611.4
2018-Jul-16 13:30N 50°52' E 001°07'611.5
2018-Jul-16 13:00N 50°56' E 001°13'510.6
2018-Jul-16 12:30N 50°60' E 001°19'611.6
2018-Jul-16 12:00N 51°04' E 001°26'612.0
2018-Jul-16 11:30N 51°07' E 001°34'713.5
2018-Jul-16 11:00N 51°11' E 001°42'713.6
2018-Jul-16 10:31N 51°17' E 001°49'713.6
2018-Jul-16 10:01N 51°23' E 001°55'713.2
2018-Jul-16 09:30N 51°28' E 002°00'612.5
2018-Jul-16 09:01N 51°33' E 002°06'611.3
2018-Jul-16 08:30N 51°38' E 002°12'612.2
2018-Jul-16 08:00N 51°42' E 002°18'612.8
2018-Jul-16 07:30N 51°48' E 002°24'612.5
2018-Jul-16 07:01N 51°52' E 002°31'611.3
2018-Jul-16 06:30N 51°57' E 002°36'611.1
2018-Jul-16 06:00N 52°02' E 002°38'611.2
2018-Jul-16 05:30N 52°08' E 002°40'611.0
2018-Jul-16 05:00N 52°13' E 002°43'510.9
2018-Jul-16 04:30N 52°18' E 002°47'611.0
2018-Jul-16 04:01N 52°23' E 002°50'611.3
2018-Jul-16 03:29N 52°28' E 002°55'611.7
2018-Jul-16 03:00N 52°33' E 002°59'612.0
2018-Jul-16 02:30N 52°38' E 003°03'612.0
2018-Jul-16 02:00N 52°44' E 003°08'612.1
2018-Jul-16 01:30N 52°49' E 003°12'612.4
2018-Jul-16 01:00N 52°55' E 003°16'612.5
2018-Jul-16 00:30N 53°01' E 003°19'612.7
2018-Jul-16 00:00N 53°07' E 003°22'712.8
2018-Jul-15 23:27N 53°14' E 003°26'613.0
2018-Jul-15 22:59N 53°20' E 003°29'612.8
2018-Jul-15 22:30N 53°26' E 003°31'712.9
2018-Jul-15 21:56N 53°32' E 003°35'6312.1
2018-Jul-15 16:44N 54°18' E 004°48'2712.7
2018-Jul-15 14:35N 54°41' E 005°13'112.7
2018-Jul-15 14:30N 54°42' E 005°14'5112.4
2018-Jul-15 10:25N 55°25' E 006°02'512.5
2018-Jul-15 10:00N 55°30' E 006°06'712.4
2018-Jul-15 09:28N 55°35' E 006°13'612.6
2018-Jul-15 09:00N 55°40' E 006°18'612.6
2018-Jul-15 08:30N 55°46' E 006°24'15212.2
2018-Jul-14 20:05N 57°42' E 009°21'311.9
2018-Jul-14 19:52N 57°44' E 009°25'412.0
2018-Jul-14 19:30N 57°47' E 009°30'712.2
2018-Jul-14 18:58N 57°47' E 009°43'712.4
2018-Jul-14 18:26N 57°48' E 009°55'612.6
2018-Jul-14 17:59N 57°49' E 010°06'711.3
2018-Jul-14 17:24N 57°49' E 010°18'411.1
2018-Jul-14 17:01N 57°49' E 010°26'611.0
2018-Jul-14 16:28N 57°49' E 010°37'4 9.1
2018-Jul-14 16:00N 57°50' E 010°45'5 9.5
2018-Jul-14 15:30N 57°46' E 010°50'713.1
2018-Jul-14 15:00N 57°41' E 010°59'713.2
2018-Jul-14 14:31N 57°37' E 011°08'1313.3
2018-Jul-14 13:30N 57°28' E 011°26'713.8
2018-Jul-14 13:00N 57°21' E 011°30'713.6
2018-Jul-14 12:30N 57°15' E 011°35'713.9
2018-Jul-14 12:00N 57°08' E 011°39'713.9
2018-Jul-14 11:30N 57°02' E 011°43'713.8
2018-Jul-14 10:59N 56°55' E 011°47'713.0
2018-Jul-14 10:29N 56°49' E 011°51'611.4
2018-Jul-14 10:00N 56°43' E 011°51'713.0
2018-Jul-14 09:30N 56°37' E 011°45'713.4
2018-Jul-14 09:00N 56°32' E 011°39'713.2
2018-Jul-14 08:30N 56°26' E 011°33'712.9
2018-Jul-14 08:00N 56°20' E 011°28'612.8
2018-Jul-14 07:30N 56°15' E 011°22'612.5
2018-Jul-14 07:00N 56°10' E 011°16'612.7
2018-Jul-14 06:30N 56°05' E 011°08'812.9
2018-Jul-14 05:55N 55°58' E 011°02'713.0
2018-Jul-14 05:22N 55°53' E 010°54'612.2
2018-Jul-14 04:52N 55°47' E 010°49'513.1
2018-Jul-14 04:30N 55°42' E 010°48'2212.2
2018-Jul-14 02:40N 55°22' E 011°02'212.2
2018-Jul-14 02:29N 55°19' E 011°02'612.1
2018-Jul-14 01:58N 55°13' E 011°06'511.4
2018-Jul-14 01:30N 55°09' E 011°00'611.9
2018-Jul-14 01:00N 55°03' E 010°60'612.0
2018-Jul-14 00:30N 54°58' E 010°57'612.3
2018-Jul-14 00:00N 54°53' E 010°50'612.4
2018-Jul-13 23:30N 54°47' E 010°49'611.9
2018-Jul-13 23:00N 54°41' E 010°47'612.1
2018-Jul-13 22:30N 54°38' E 010°56'611.5
2018-Jul-13 22:00N 54°36' E 011°06'611.9
2018-Jul-13 21:30N 54°35' E 011°16'612.3
2018-Jul-13 21:00N 54°32' E 011°25'611.9
2018-Jul-13 20:30N 54°29' E 011°34'611.7
2018-Jul-13 20:00N 54°27' E 011°44'611.5
2018-Jul-13 19:30N 54°26' E 011°54'612.2
2018-Jul-13 18:59N 54°27' E 012°04'510.6
2018-Jul-13 18:30N 54°29' E 012°12'611.8
2018-Jul-13 18:00N 54°34' E 012°16'5 9.2
2018-Jul-13 17:30N 54°38' E 012°21'6 9.6
2018-Jul-13 16:55N 54°41' E 012°29'2410.5
2018-Jul-13 14:37N 54°52' E 013°06'1612.2
2018-Jul-13 13:19N 54°57' E 013°32'1412.0
2018-Jul-13 12:12N 55°02' E 013°55'312.3
2018-Jul-13 11:56N 55°03' E 013°60'511.7
2018-Jul-13 11:30N 55°06' E 014°07'612.4
2018-Jul-13 10:59N 55°11' E 014°13'612.1
2018-Jul-13 10:30N 55°15' E 014°20'612.0
2018-Jul-13 10:00N 55°20' E 014°27'612.0
2018-Jul-13 09:30N 55°25' E 014°33'612.0
2018-Jul-13 09:00N 55°28' E 014°42'612.1
2018-Jul-13 08:30N 55°31' E 014°52'612.2
2018-Jul-13 08:00N 55°33' E 015°02'612.2
2018-Jul-13 07:30N 55°35' E 015°12'612.1
2018-Jul-13 07:00N 55°38' E 015°22'713.6
2018-Jul-13 06:30N 55°40' E 015°33'612.3
2018-Jul-13 06:00N 55°42' E 015°43'612.1
2018-Jul-13 05:30N 55°43' E 015°54'612.2
2018-Jul-13 05:00N 55°45' E 016°04'612.4
2018-Jul-13 04:30N 55°46' E 016°15'612.3
2018-Jul-13 04:00N 55°48' E 016°25'612.2
2018-Jul-13 03:30N 55°50' E 016°36'612.3
2018-Jul-13 03:00N 55°51' E 016°46'612.2
2018-Jul-13 02:30N 55°53' E 016°57'612.4
2018-Jul-13 02:00N 55°54' E 017°08'612.2
2018-Jul-13 01:30N 55°56' E 017°18'612.3
2018-Jul-13 01:00N 55°57' E 017°29'712.1
2018-Jul-13 00:27N 55°59' E 017°40'512.2
2018-Jul-13 00:00N 56°02' E 017°49'612.1
2018-Jul-12 23:30N 56°05' E 017°58'612.2
2018-Jul-12 22:59N 56°09' E 018°08'712.2
2018-Jul-12 22:24N 56°12' E 018°19'19412.4
2018-Jul-12 06:44N 58°59' E 021°24'312.8
2018-Jul-12 06:30N 59°01' E 021°27'612.7
2018-Jul-12 06:00N 59°06' E 021°34'713.0
2018-Jul-12 05:30N 59°11' E 021°43'713.1
2018-Jul-12 05:00N 59°15' E 021°53'612.6
2018-Jul-12 04:30N 59°19' E 022°03'712.6
2018-Jul-12 03:58N 59°23' E 022°13'712.3
2018-Jul-12 03:24N 59°28' E 022°24'512.1
2018-Jul-12 03:00N 59°30' E 022°31'612.1
2018-Jul-12 02:30N 59°32' E 022°43'612.2
2018-Jul-12 02:00N 59°34' E 022°54'612.2
2018-Jul-12 01:30N 59°36' E 023°06'612.3
2018-Jul-12 01:00N 59°37' E 023°18'612.5
2018-Jul-12 00:30N 59°39' E 023°29'612.6
2018-Jul-12 00:00N 59°41' E 023°41'612.5
2018-Jul-11 23:30N 59°43' E 023°53'612.5
2018-Jul-11 23:00N 59°45' E 024°05'612.7
2018-Jul-11 22:30N 59°46' E 024°17'612.5
2018-Jul-11 22:00N 59°48' E 024°29'612.3
2018-Jul-11 21:30N 59°49' E 024°41'612.4
2018-Jul-11 21:00N 59°50' E 024°54'612.7
2018-Jul-11 20:30N 59°51' E 025°06'612.6
2018-Jul-11 20:00N 59°52' E 025°18'612.5
2018-Jul-11 19:30N 59°53' E 025°31'2512.6
2018-Jul-11 17:33N 59°59' E 026°19'312.7
2018-Jul-11 17:19N 59°60' E 026°24'412.5
2018-Jul-11 17:00N 60°01' E 026°32'612.3
2018-Jul-11 16:30N 60°01' E 026°44'712.7
2018-Jul-11 15:59N 59°60' E 026°57'611.9
2018-Jul-11 15:30N 60°01' E 027°08'612.7
2018-Jul-11 15:00N 60°04' E 027°19'612.7
2018-Jul-11 14:30N 60°07' E 027°30'713.2
2018-Jul-11 14:00N 60°11' E 027°41'611.4
2018-Jul-11 13:30N 60°11' E 027°53'612.8
2018-Jul-11 13:00N 60°10' E 028°05'612.4
2018-Jul-11 12:30N 60°08' E 028°17'612.3
2018-Jul-11 12:00N 60°04' E 028°27'510.5
2018-Jul-11 11:30N 60°03' E 028°37'611.3
2018-Jul-11 11:00N 59°57' E 028°36'4 7.2
2018-Jul-11 10:30N 59°54' E 028°32'611.1
2018-Jul-11 10:00N 59°50' E 028°26'510.4
2018-Jul-11 09:30N 59°44' E 028°25'3 5.0
2018-Jul-11 09:00N 59°42' E 028°26'0 0.0
2018-Jul-11 08:29N 59°42' E 028°26'0 0.0
2018-Jul-11 07:59N 59°42' E 028°26'0 0.0
2018-Jul-11 07:29N 59°42' E 028°26'0 0.0
2018-Jul-11 05:56N 59°42' E 028°26'0 0.0
2018-Jul-11 05:30N 59°42' E 028°26'0 0.0
2018-Jul-11 00:02N 59°42' E 028°26'0 0.0
2018-Jul-10 21:38N 59°42' E 028°26'0 0.0
2018-Jul-10 21:20N 59°42' E 028°26'0 0.0
2018-Jul-10 15:32N 59°42' E 028°26'0 0.0
2018-Jul-10 15:26N 59°42' E 028°26'0 0.0
2018-Jul-10 14:59N 59°42' E 028°26'0 0.0
2018-Jul-10 14:29N 59°42' E 028°26'0 0.0
2018-Jul-10 13:59N 59°42' E 028°26'0 0.0
2018-Jul-10 13:20N 59°42' E 028°26'0 0.0
2018-Jul-10 12:50N 59°42' E 028°26'0 0.0
2018-Jul-10 12:20N 59°42' E 028°26'0 0.0
2018-Jul-10 11:35N 59°42' E 028°26'0 0.0
2018-Jul-10 11:23N 59°42' E 028°26'0 0.0
2018-Jul-10 10:53N 59°42' E 028°26'0 0.0
2018-Jul-10 10:28N 59°42' E 028°26'0 0.0
2018-Jul-10 09:53N 59°42' E 028°26'0 0.0
2018-Jul-10 09:23N 59°42' E 028°26'0 0.0
2018-Jul-10 08:53N 59°42' E 028°26'0 0.0
2018-Jul-10 08:23N 59°42' E 028°26'0 0.0
2018-Jul-10 07:56N 59°42' E 028°26'0 0.0
2018-Jul-10 07:26N 59°42' E 028°26'0 0.0
2018-Jul-10 06:56N 59°42' E 028°26'0 0.0
2018-Jul-10 06:26N 59°42' E 028°26'0 0.0
2018-Jul-10 05:56N 59°42' E 028°26'0 0.0
2018-Jul-10 05:29N 59°42' E 028°26'0 0.0
2018-Jul-10 04:59N 59°42' E 028°26'0 0.0
2018-Jul-10 04:29N 59°42' E 028°26'0 0.0
2018-Jul-10 03:59N 59°42' E 028°26'0 0.0
2018-Jul-10 03:29N 59°42' E 028°26'0 0.0
2018-Jul-10 03:01N 59°42' E 028°26'1 1.5
2018-Jul-10 02:31N 59°42' E 028°24'3 5.6
2018-Jul-10 02:01N 59°45' E 028°24'2 4.0
2018-Jul-10 01:30N 59°47' E 028°24'0 0.0
2018-Jul-10 01:00N 59°47' E 028°24'0 0.0
2018-Jul-10 00:30N 59°47' E 028°24'0 0.0
2018-Jul-10 00:00N 59°47' E 028°24'0 0.1
2018-Jul-09 23:29N 59°47' E 028°24'0 0.1
2018-Jul-09 22:55N 59°46' E 028°24'0 0.0
2018-Jul-09 22:27N 59°46' E 028°24'0 0.0
2018-Jul-09 21:59N 59°47' E 028°24'0 0.0
2018-Jul-09 21:24N 59°47' E 028°24'0 0.0
2018-Jul-09 20:55N 59°47' E 028°24'0 0.0
2018-Jul-09 20:24N 59°47' E 028°24'0 0.0
2018-Jul-09 19:54N 59°47' E 028°24'0 0.0
2018-Jul-09 19:30N 59°47' E 028°24'0 0.0
2018-Jul-09 18:57N 59°47' E 028°24'0 0.0
2018-Jul-09 18:27N 59°47' E 028°24'0 0.0
2018-Jul-09 17:57N 59°47' E 028°24'0 0.0
2018-Jul-09 17:27N 59°47' E 028°24'0 0.0
2018-Jul-09 16:57N 59°47' E 028°24'0 0.0
2018-Jul-09 16:30N 59°47' E 028°24'0 0.0
2018-Jul-09 16:00N 59°46' E 028°24'0 0.0
2018-Jul-09 15:30N 59°47' E 028°24'0 0.0
2018-Jul-09 15:00N 59°47' E 028°24'0 0.0
2018-Jul-09 14:30N 59°47' E 028°24'0 0.0
2018-Jul-09 14:00N 59°47' E 028°24'0 0.0
2018-Jul-09 13:27N 59°46' E 028°24'0 0.0
2018-Jul-09 13:00N 59°46' E 028°24'0 0.0
2018-Jul-09 12:30N 59°46' E 028°24'0 0.0
2018-Jul-09 12:00N 59°46' E 028°24'0 0.1
2018-Jul-09 11:30N 59°47' E 028°24'0 0.1
2018-Jul-09 11:00N 59°46' E 028°24'0 0.0
2018-Jul-09 10:30N 59°47' E 028°24'0 0.0
2018-Jul-09 10:00N 59°47' E 028°24'0 0.1
2018-Jul-09 09:30N 59°47' E 028°24'0 0.0
2018-Jul-09 09:00N 59°47' E 028°24'0 0.1
2018-Jul-09 08:21N 59°47' E 028°24'0 0.2
2018-Jul-09 07:54N 59°47' E 028°24'0 0.0
2018-Jul-09 07:24N 59°47' E 028°24'0 0.1
2018-Jul-09 06:54N 59°47' E 028°24'0 0.4
2018-Jul-09 06:30N 59°47' E 028°24'4 7.3
2018-Jul-09 06:00N 59°50' E 028°26'612.4
2018-Jul-09 05:30N 59°56' E 028°33'4 8.0
2018-Jul-09 05:00N 59°59' E 028°35'  
Track history (hours):
 
Tides and Currents Weather Stations Pressure Air Temp Water Temp Dewpoint Dewpoint Depression Visibility Wind Speed Wind Dir Waves Ship Positions

Hafnia Nordica

Last reported at 2018-Jul-19 04:35 UTC. Time now 2018-Jul-19 23:15 UTC.
Position N 49°44' W 004°49'.

Length 186 m; draft 11 m.

Type: Ship. MMSI: 249460000.

Date/timePositionNaut miles runAvg speedWind from/ knotsBaromVisibWave heightAir tempDewpointWater temp
2018-Jul-19 04:35N 49°44' W 004°49'1513.0
2018-Jul-19 03:27N 49°46' W 004°27'1112.8
2018-Jul-19 02:38N 49°49' W 004°11'212.8
2018-Jul-19 02:29N 49°49' W 004°08'812.8
2018-Jul-19 01:49N 49°51' W 003°55'412.6
2018-Jul-19 01:30N 49°52' W 003°49'713.0
2018-Jul-19 01:00N 49°53' W 003°39'612.8
2018-Jul-19 00:30N 49°55' W 003°29'612.6
2018-Jul-19 00:00N 49°56' W 003°20'612.3
2018-Jul-18 23:30N 49°58' W 003°11'612.2
2018-Jul-18 23:00N 49°59' W 003°01'612.1
2018-Jul-18 22:30N 50°01' W 002°52'612.3
2018-Jul-18 22:00N 50°02' W 002°43'612.2
2018-Jul-18 21:30N 50°04' W 002°34'612.4
2018-Jul-18 21:00N 50°06' W 002°25'612.3
2018-Jul-18 20:30N 50°07' W 002°15'712.9
2018-Jul-18 19:57N 50°09' W 002°05'1113.9
2018-Jul-18 19:08N 50°13' W 001°48'414.4
2018-Jul-18 18:51N 50°14' W 001°42'514.5
2018-Jul-18 18:30N 50°16' W 001°35'714.4
2018-Jul-18 18:00N 50°20' W 001°25'714.6
2018-Jul-18 17:30N 50°23' W 001°15'612.5
2018-Jul-18 17:00N 50°26' W 001°06'2 3.1
2018-Jul-18 16:30N 50°26' W 001°04'1 1.9
2018-Jul-18 16:00N 50°26' W 001°02'1 1.2
2018-Jul-18 15:30N 50°26' W 001°01'0 0.3
2018-Jul-18 15:00N 50°26' W 001°01'0 0.5
2018-Jul-18 14:30N 50°26' W 001°02'2 1.6
2018-Jul-18 13:30N 50°26' W 001°04'1 2.3
2018-Jul-18 13:00N 50°26' W 001°02'2 3.5
2018-Jul-18 12:30N 50°27' W 000°60'2 4.9
2018-Jul-18 12:00N 50°29' W 000°58'1 2.8
2018-Jul-18 11:30N 50°29' W 000°60'3 3.3
2018-Jul-18 10:30N 50°28' W 001°05'1 2.9
2018-Jul-18 10:00N 50°28' W 001°07'1 2.0
2018-Jul-18 09:29N 50°28' W 001°09'1 1.1
2018-Jul-18 09:00N 50°28' W 001°10'0 0.3
2018-Jul-18 08:30N 50°28' W 001°10'1 0.9
2018-Jul-18 07:48N 50°28' W 001°09'1 1.6
2018-Jul-18 07:28N 50°28' W 001°08'1 2.1
2018-Jul-18 07:00N 50°28' W 001°06'1 2.3
2018-Jul-18 06:29N 50°28' W 001°04'1 2.5
2018-Jul-18 06:00N 50°28' W 001°02'1 2.8
2018-Jul-18 05:30N 50°28' W 001°00'1 2.9
2018-Jul-18 05:00N 50°28' W 000°58'1 2.8
2018-Jul-18 04:30N 50°28' W 000°56'1 2.4
2018-Jul-18 04:00N 50°28' W 000°54'1 1.8
2018-Jul-18 03:30N 50°28' W 000°53'1 1.0
2018-Jul-18 03:00N 50°28' W 000°52'0 0.2
2018-Jul-18 02:30N 50°28' W 000°52'0 0.6
2018-Jul-18 02:00N 50°28' W 000°52'1 1.4
2018-Jul-18 01:30N 50°28' W 000°53'1 2.2
2018-Jul-18 01:00N 50°28' W 000°55'2 2.9
2018-Jul-18 00:27N 50°28' W 000°57'2 3.4
2018-Jul-17 23:58N 50°27' W 000°60'2 3.8
2018-Jul-17 23:29N 50°27' W 001°03'2 3.8
2018-Jul-17 23:00N 50°27' W 001°06'2 4.0
2018-Jul-17 22:30N 50°27' W 001°09'2 3.8
2018-Jul-17 22:00N 50°26' W 001°12'2 3.2
2018-Jul-17 21:30N 50°26' W 001°14'1 2.3
2018-Jul-17 20:58N 50°26' W 001°16'1 1.4
2018-Jul-17 20:30N 50°26' W 001°17'0 0.6
2018-Jul-17 20:00N 50°26' W 001°17'0 0.6
2018-Jul-17 19:30N 50°26' W 001°17'1 1.4
2018-Jul-17 18:59N 50°25' W 001°16'1 2.0
2018-Jul-17 18:30N 50°25' W 001°14'1 2.5
2018-Jul-17 18:00N 50°25' W 001°13'2 2.8
2018-Jul-17 17:19N 50°25' W 001°09'2 3.0
2018-Jul-17 16:46N 50°25' W 001°07'1 3.0
2018-Jul-17 16:30N 50°25' W 001°06'1 2.5
2018-Jul-17 15:58N 50°25' W 001°03'1 1.9
2018-Jul-17 15:30N 50°25' W 001°02'1 1.5
2018-Jul-17 14:59N 50°25' W 001°01'1 1.9
2018-Jul-17 14:29N 50°25' W 000°59'3 5.0
2018-Jul-17 13:51N 50°25' W 000°54'2 4.9
2018-Jul-17 13:30N 50°26' W 000°52'2 3.9
2018-Jul-17 12:59N 50°26' W 000°49'1 1.8
2018-Jul-17 12:29N 50°25' W 000°48'2 3.7
2018-Jul-17 12:00N 50°25' W 000°50'2 3.8
2018-Jul-17 11:30N 50°24' W 000°53'2 4.0
2018-Jul-17 10:57N 50°24' W 000°57'2 4.4
2018-Jul-17 10:29N 50°24' W 000°60'2 4.1
2018-Jul-17 09:59N 50°24' W 001°03'2 3.6
2018-Jul-17 09:30N 50°24' W 001°06'1 2.8
2018-Jul-17 09:00N 50°23' W 001°08'1 1.6
2018-Jul-17 08:20N 50°23' W 001°10'0 0.5
2018-Jul-17 07:52N 50°23' W 001°10'0 0.4
2018-Jul-17 07:30N 50°23' W 001°10'3 1.7
2018-Jul-17 05:54N 50°24' W 001°05'1 2.6
2018-Jul-17 05:30N 50°24' W 001°04'1 2.4
2018-Jul-17 05:00N 50°24' W 001°02'1 3.0
2018-Jul-17 04:30N 50°25' W 000°60'2 3.0
2018-Jul-17 03:56N 50°25' W 000°57'1 2.9
2018-Jul-17 03:30N 50°25' W 000°55'2 1.5
2018-Jul-17 02:20N 50°26' W 000°53'0 0.5
2018-Jul-17 02:00N 50°26' W 000°53'1 1.8
2018-Jul-17 01:30N 50°26' W 000°51'3 6.1
2018-Jul-17 01:00N 50°26' W 000°46'1 2.0
2018-Jul-17 00:28N 50°25' W 000°47'3 3.6
2018-Jul-16 23:30N 50°25' W 000°52'2 4.0
2018-Jul-16 23:00N 50°24' W 000°55'3 4.6
2018-Jul-16 22:24N 50°24' W 000°60'2 4.5
2018-Jul-16 22:00N 50°24' W 001°02'2 3.7
2018-Jul-16 21:27N 50°24' W 001°05'1 2.7
2018-Jul-16 20:55N 50°23' W 001°03'4 8.8
2018-Jul-16 20:27N 50°24' W 000°57'511.0
2018-Jul-16 20:00N 50°24' W 000°49'612.0
2018-Jul-16 19:31N 50°25' W 000°40'712.7
2018-Jul-16 18:56N 50°26' W 000°28'511.9
2018-Jul-16 18:30N 50°27' W 000°21'4 7.7
2018-Jul-16 18:00N 50°29' W 000°15'612.3
2018-Jul-16 17:30N 50°30' W 000°05'713.5
2018-Jul-16 17:00N 50°32' E 000°05'714.1
2018-Jul-16 16:30N 50°34' E 000°15'713.8
2018-Jul-16 16:00N 50°36' E 000°26'713.4
2018-Jul-16 15:30N 50°38' E 000°36'612.9
2018-Jul-16 15:00N 50°42' E 000°44'612.3
2018-Jul-16 14:30N 50°45' E 000°52'611.8
2018-Jul-16 14:00N 50°48' E 001°00'611.4
2018-Jul-16 13:30N 50°52' E 001°07'611.5
2018-Jul-16 13:00N 50°56' E 001°13'510.6
2018-Jul-16 12:30N 50°60' E 001°19'611.6
2018-Jul-16 12:00N 51°04' E 001°26'612.0
2018-Jul-16 11:30N 51°07' E 001°34'713.5
2018-Jul-16 11:00N 51°11' E 001°42'713.6
2018-Jul-16 10:31N 51°17' E 001°49'713.6
2018-Jul-16 10:01N 51°23' E 001°55'713.2
2018-Jul-16 09:30N 51°28' E 002°00'612.5
2018-Jul-16 09:01N 51°33' E 002°06'611.3
2018-Jul-16 08:30N 51°38' E 002°12'612.2
2018-Jul-16 08:00N 51°42' E 002°18'612.8
2018-Jul-16 07:30N 51°48' E 002°24'612.5
2018-Jul-16 07:01N 51°52' E 002°31'611.3
2018-Jul-16 06:30N 51°57' E 002°36'611.1
2018-Jul-16 06:00N 52°02' E 002°38'611.2
2018-Jul-16 05:30N 52°08' E 002°40'611.0
2018-Jul-16 05:00N 52°13' E 002°43'510.9
2018-Jul-16 04:30N 52°18' E 002°47'611.0
2018-Jul-16 04:01N 52°23' E 002°50'611.3
2018-Jul-16 03:29N 52°28' E 002°55'611.7
2018-Jul-16 03:00N 52°33' E 002°59'612.0
2018-Jul-16 02:30N 52°38' E 003°03'612.0
2018-Jul-16 02:00N 52°44' E 003°08'612.1
2018-Jul-16 01:30N 52°49' E 003°12'612.4
2018-Jul-16 01:00N 52°55' E 003°16'612.5
2018-Jul-16 00:30N 53°01' E 003°19'612.7
2018-Jul-16 00:00N 53°07' E 003°22'712.8
2018-Jul-15 23:27N 53°14' E 003°26'613.0
2018-Jul-15 22:59N 53°20' E 003°29'612.8
2018-Jul-15 22:30N 53°26' E 003°31'712.9
2018-Jul-15 21:56N 53°32' E 003°35'6312.1
2018-Jul-15 16:44N 54°18' E 004°48'2712.7
2018-Jul-15 14:35N 54°41' E 005°13'112.7
2018-Jul-15 14:30N 54°42' E 005°14'5112.4
2018-Jul-15 10:25N 55°25' E 006°02'512.5
2018-Jul-15 10:00N 55°30' E 006°06'712.4
2018-Jul-15 09:28N 55°35' E 006°13'612.6
2018-Jul-15 09:00N 55°40' E 006°18'612.6
2018-Jul-15 08:30N 55°46' E 006°24'15212.2
2018-Jul-14 20:05N 57°42' E 009°21'311.9
2018-Jul-14 19:52N 57°44' E 009°25'412.0
2018-Jul-14 19:30N 57°47' E 009°30'712.2
2018-Jul-14 18:58N 57°47' E 009°43'712.4
2018-Jul-14 18:26N 57°48' E 009°55'612.6
2018-Jul-14 17:59N 57°49' E 010°06'711.3
2018-Jul-14 17:24N 57°49' E 010°18'411.1
2018-Jul-14 17:01N 57°49' E 010°26'611.0
2018-Jul-14 16:28N 57°49' E 010°37'4 9.1
2018-Jul-14 16:00N 57°50' E 010°45'5 9.5
2018-Jul-14 15:30N 57°46' E 010°50'713.1
2018-Jul-14 15:00N 57°41' E 010°59'713.2
2018-Jul-14 14:31N 57°37' E 011°08'1313.3
2018-Jul-14 13:30N 57°28' E 011°26'713.8
2018-Jul-14 13:00N 57°21' E 011°30'713.6
2018-Jul-14 12:30N 57°15' E 011°35'713.9
2018-Jul-14 12:00N 57°08' E 011°39'713.9
2018-Jul-14 11:30N 57°02' E 011°43'713.8
2018-Jul-14 10:59N 56°55' E 011°47'713.0
2018-Jul-14 10:29N 56°49' E 011°51'611.4
2018-Jul-14 10:00N 56°43' E 011°51'713.0
2018-Jul-14 09:30N 56°37' E 011°45'713.4
2018-Jul-14 09:00N 56°32' E 011°39'713.2
2018-Jul-14 08:30N 56°26' E 011°33'712.9
2018-Jul-14 08:00N 56°20' E 011°28'612.8
2018-Jul-14 07:30N 56°15' E 011°22'612.5
2018-Jul-14 07:00N 56°10' E 011°16'612.7
2018-Jul-14 06:30N 56°05' E 011°08'812.9
2018-Jul-14 05:55N 55°58' E 011°02'713.0
2018-Jul-14 05:22N 55°53' E 010°54'612.2
2018-Jul-14 04:52N 55°47' E 010°49'513.1
2018-Jul-14 04:30N 55°42' E 010°48'2212.2
2018-Jul-14 02:40N 55°22' E 011°02'212.2
2018-Jul-14 02:29N 55°19' E 011°02'612.1
2018-Jul-14 01:58N 55°13' E 011°06'511.4
2018-Jul-14 01:30N 55°09' E 011°00'611.9
2018-Jul-14 01:00N 55°03' E 010°60'612.0
2018-Jul-14 00:30N 54°58' E 010°57'612.3
2018-Jul-14 00:00N 54°53' E 010°50'612.4
2018-Jul-13 23:30N 54°47' E 010°49'611.9
2018-Jul-13 23:00N 54°41' E 010°47'612.1
2018-Jul-13 22:30N 54°38' E 010°56'611.5
2018-Jul-13 22:00N 54°36' E 011°06'611.9
2018-Jul-13 21:30N 54°35' E 011°16'612.3
2018-Jul-13 21:00N 54°32' E 011°25'611.9
2018-Jul-13 20:30N 54°29' E 011°34'611.7
2018-Jul-13 20:00N 54°27' E 011°44'611.5
2018-Jul-13 19:30N 54°26' E 011°54'612.2
2018-Jul-13 18:59N 54°27' E 012°04'510.6
2018-Jul-13 18:30N 54°29' E 012°12'611.8
2018-Jul-13 18:00N 54°34' E 012°16'5 9.2
2018-Jul-13 17:30N 54°38' E 012°21'6 9.6
2018-Jul-13 16:55N 54°41' E 012°29'2410.5
2018-Jul-13 14:37N 54°52' E 013°06'1612.2
2018-Jul-13 13:19N 54°57' E 013°32'1412.0
2018-Jul-13 12:12N 55°02' E 013°55'312.3
2018-Jul-13 11:56N 55°03' E 013°60'511.7
2018-Jul-13 11:30N 55°06' E 014°07'612.4
2018-Jul-13 10:59N 55°11' E 014°13'612.1
2018-Jul-13 10:30N 55°15' E 014°20'612.0
2018-Jul-13 10:00N 55°20' E 014°27'612.0
2018-Jul-13 09:30N 55°25' E 014°33'612.0
2018-Jul-13 09:00N 55°28' E 014°42'612.1
2018-Jul-13 08:30N 55°31' E 014°52'612.2
2018-Jul-13 08:00N 55°33' E 015°02'612.2
2018-Jul-13 07:30N 55°35' E 015°12'612.1
2018-Jul-13 07:00N 55°38' E 015°22'713.6
2018-Jul-13 06:30N 55°40' E 015°33'612.3
2018-Jul-13 06:00N 55°42' E 015°43'612.1
2018-Jul-13 05:30N 55°43' E 015°54'612.2
2018-Jul-13 05:00N 55°45' E 016°04'612.4
2018-Jul-13 04:30N 55°46' E 016°15'612.3
2018-Jul-13 04:00N 55°48' E 016°25'612.2
2018-Jul-13 03:30N 55°50' E 016°36'612.3
2018-Jul-13 03:00N 55°51' E 016°46'612.2
2018-Jul-13 02:30N 55°53' E 016°57'612.4
2018-Jul-13 02:00N 55°54' E 017°08'612.2
2018-Jul-13 01:30N 55°56' E 017°18'612.3
2018-Jul-13 01:00N 55°57' E 017°29'712.1
2018-Jul-13 00:27N 55°59' E 017°40'512.2
2018-Jul-13 00:00N 56°02' E 017°49'612.1
2018-Jul-12 23:30N 56°05' E 017°58'612.2
2018-Jul-12 22:59N 56°09' E 018°08'712.2
2018-Jul-12 22:24N 56°12' E 018°19'19412.4
2018-Jul-12 06:44N 58°59' E 021°24'312.8
2018-Jul-12 06:30N 59°01' E 021°27'612.7
2018-Jul-12 06:00N 59°06' E 021°34'713.0
2018-Jul-12 05:30N 59°11' E 021°43'713.1
2018-Jul-12 05:00N 59°15' E 021°53'612.6
2018-Jul-12 04:30N 59°19' E 022°03'712.6
2018-Jul-12 03:58N 59°23' E 022°13'712.3
2018-Jul-12 03:24N 59°28' E 022°24'512.1
2018-Jul-12 03:00N 59°30' E 022°31'612.1
2018-Jul-12 02:30N 59°32' E 022°43'612.2
2018-Jul-12 02:00N 59°34' E 022°54'612.2
2018-Jul-12 01:30N 59°36' E 023°06'612.3
2018-Jul-12 01:00N 59°37' E 023°18'612.5
2018-Jul-12 00:30N 59°39' E 023°29'612.6
2018-Jul-12 00:00N 59°41' E 023°41'612.5
2018-Jul-11 23:30N 59°43' E 023°53'612.5
2018-Jul-11 23:00N 59°45' E 024°05'612.7
2018-Jul-11 22:30N 59°46' E 024°17'612.5
2018-Jul-11 22:00N 59°48' E 024°29'612.3
2018-Jul-11 21:30N 59°49' E 024°41'612.4
2018-Jul-11 21:00N 59°50' E 024°54'612.7
2018-Jul-11 20:30N 59°51' E 025°06'612.6
2018-Jul-11 20:00N 59°52' E 025°18'612.5
2018-Jul-11 19:30N 59°53' E 025°31'2512.6
2018-Jul-11 17:33N 59°59' E 026°19'312.7
2018-Jul-11 17:19N 59°60' E 026°24'412.5
2018-Jul-11 17:00N 60°01' E 026°32'612.3
2018-Jul-11 16:30N 60°01' E 026°44'712.7
2018-Jul-11 15:59N 59°60' E 026°57'611.9
2018-Jul-11 15:30N 60°01' E 027°08'612.7
2018-Jul-11 15:00N 60°04' E 027°19'612.7
2018-Jul-11 14:30N 60°07' E 027°30'713.2
2018-Jul-11 14:00N 60°11' E 027°41'611.4
2018-Jul-11 13:30N 60°11' E 027°53'612.8
2018-Jul-11 13:00N 60°10' E 028°05'612.4
2018-Jul-11 12:30N 60°08' E 028°17'612.3
2018-Jul-11 12:00N 60°04' E 028°27'510.5
2018-Jul-11 11:30N 60°03' E 028°37'611.3
2018-Jul-11 11:00N 59°57' E 028°36'4 7.2
2018-Jul-11 10:30N 59°54' E 028°32'611.1
2018-Jul-11 10:00N 59°50' E 028°26'510.4
2018-Jul-11 09:30N 59°44' E 028°25'3 5.0
2018-Jul-11 09:00N 59°42' E 028°26'0 0.0
2018-Jul-11 08:29N 59°42' E 028°26'0 0.0
2018-Jul-11 07:59N 59°42' E 028°26'0 0.0
2018-Jul-11 07:29N 59°42' E 028°26'0 0.0
2018-Jul-11 05:56N 59°42' E 028°26'0 0.0
2018-Jul-11 05:30N 59°42' E 028°26'0 0.0
2018-Jul-11 00:02N 59°42' E 028°26'0 0.0
2018-Jul-10 21:38N 59°42' E 028°26'0 0.0
2018-Jul-10 21:20N 59°42' E 028°26'0 0.0
2018-Jul-10 15:32N 59°42' E 028°26'0 0.0
2018-Jul-10 15:26N 59°42' E 028°26'0 0.0
2018-Jul-10 14:59N 59°42' E 028°26'0 0.0
2018-Jul-10 14:29N 59°42' E 028°26'0 0.0
2018-Jul-10 13:59N 59°42' E 028°26'0 0.0
2018-Jul-10 13:20N 59°42' E 028°26'0 0.0
2018-Jul-10 12:50N 59°42' E 028°26'0 0.0
2018-Jul-10 12:20N 59°42' E 028°26'0 0.0
2018-Jul-10 11:35N 59°42' E 028°26'0 0.0
2018-Jul-10 11:23N 59°42' E 028°26'0 0.0
2018-Jul-10 10:53N 59°42' E 028°26'0 0.0
2018-Jul-10 10:28N 59°42' E 028°26'0 0.0
2018-Jul-10 09:53N 59°42' E 028°26'0 0.0
2018-Jul-10 09:23N 59°42' E 028°26'0 0.0
2018-Jul-10 08:53N 59°42' E 028°26'0 0.0
2018-Jul-10 08:23N 59°42' E 028°26'0 0.0
2018-Jul-10 07:56N 59°42' E 028°26'0 0.0
2018-Jul-10 07:26N 59°42' E 028°26'0 0.0
2018-Jul-10 06:56N 59°42' E 028°26'0 0.0
2018-Jul-10 06:26N 59°42' E 028°26'0 0.0
2018-Jul-10 05:56N 59°42' E 028°26'0 0.0
2018-Jul-10 05:29N 59°42' E 028°26'0 0.0
2018-Jul-10 04:59N 59°42' E 028°26'0 0.0
2018-Jul-10 04:29N 59°42' E 028°26'0 0.0
2018-Jul-10 03:59N 59°42' E 028°26'0 0.0
2018-Jul-10 03:29N 59°42' E 028°26'0 0.0
2018-Jul-10 03:01N 59°42' E 028°26'1 1.5
2018-Jul-10 02:31N 59°42' E 028°24'3 5.6
2018-Jul-10 02:01N 59°45' E 028°24'2 4.0
2018-Jul-10 01:30N 59°47' E 028°24'0 0.0
2018-Jul-10 01:00N 59°47' E 028°24'0 0.0
2018-Jul-10 00:30N 59°47' E 028°24'0 0.0
2018-Jul-10 00:00N 59°47' E 028°24'0 0.1
2018-Jul-09 23:29N 59°47' E 028°24'0 0.1
2018-Jul-09 22:55N 59°46' E 028°24'0 0.0
2018-Jul-09 22:27N 59°46' E 028°24'0 0.0
2018-Jul-09 21:59N 59°47' E 028°24'0 0.0
2018-Jul-09 21:24N 59°47' E 028°24'0 0.0
2018-Jul-09 20:55N 59°47' E 028°24'0 0.0
2018-Jul-09 20:24N 59°47' E 028°24'0 0.0
2018-Jul-09 19:54N 59°47' E 028°24'0 0.0
2018-Jul-09 19:30N 59°47' E 028°24'0 0.0
2018-Jul-09 18:57N 59°47' E 028°24'0 0.0
2018-Jul-09 18:27N 59°47' E 028°24'0 0.0
2018-Jul-09 17:57N 59°47' E 028°24'0 0.0
2018-Jul-09 17:27N 59°47' E 028°24'0 0.0
2018-Jul-09 16:57N 59°47' E 028°24'0 0.0
2018-Jul-09 16:30N 59°47' E 028°24'0 0.0
2018-Jul-09 16:00N 59°46' E 028°24'0 0.0
2018-Jul-09 15:30N 59°47' E 028°24'0 0.0
2018-Jul-09 15:00N 59°47' E 028°24'0 0.0
2018-Jul-09 14:30N 59°47' E 028°24'0 0.0
2018-Jul-09 14:00N 59°47' E 028°24'0 0.0
2018-Jul-09 13:27N 59°46' E 028°24'0 0.0
2018-Jul-09 13:00N 59°46' E 028°24'0 0.0
2018-Jul-09 12:30N 59°46' E 028°24'0 0.0
2018-Jul-09 12:00N 59°46' E 028°24'0 0.1
2018-Jul-09 11:30N 59°47' E 028°24'0 0.1
2018-Jul-09 11:00N 59°46' E 028°24'0 0.0
2018-Jul-09 10:30N 59°47' E 028°24'0 0.0
2018-Jul-09 10:00N 59°47' E 028°24'0 0.1
2018-Jul-09 09:30N 59°47' E 028°24'0 0.0
2018-Jul-09 09:00N 59°47' E 028°24'0 0.1
2018-Jul-09 08:21N 59°47' E 028°24'0 0.2
2018-Jul-09 07:54N 59°47' E 028°24'0 0.0
2018-Jul-09 07:24N 59°47' E 028°24'0 0.1
2018-Jul-09 06:54N 59°47' E 028°24'0 0.4
2018-Jul-09 06:30N 59°47' E 028°24'4 7.3
2018-Jul-09 06:00N 59°50' E 028°26'612.4
2018-Jul-09 05:30N 59°56' E 028°33'4 8.0
2018-Jul-09 05:00N 59°59' E 028°35'  

Dump ship's entire track history